Dalton, GA

8:15 PM EST on December 28, 2014 (GMT -0500)
Russell | Change Station
CLOSE
Current Station
Airport
Location: Rome,
Elevation: 643 ft
Nearby Weather Stations
Active Advisory: Areal Flood Watch

Elev 643 ft 34.35 °N, 85.16 °W | Updated 20 minutes ago

Overcast
Overcast
57 °F
Feels Like 57 °F
N
5
Wind Variable Wind from NNE

Today
High -- | Low -- °F
--% Chance of Precip.
Yesterday
High -- | Low -- °F
Precip. -- in
7:46 AM 5:36 PM
First Quarter, 53% visible
Pressure 30.07 in
Visibility 8.0 miles
Clouds Few 900 ft
Mostly Cloudy 1300 ft
Overcast 3700 ft
Dew Point 56 °F
Humidity 96%
Rainfall 0.60 in
Snow Depth Not available.
UV 0 out of 12
Pollen .10 out of 12
Air Quality Not available.
Flu Activity Not available.
SPECI KRMG 290055Z AUTO 03004KT 8SM -RA FEW009 BKN013 OVC037 14/13 A3007 RMK AO2 RAB54 P0000 T01390133

More Conditions Fewer Conditions

Pressure 30.07 in
Visibility 8.0 miles
Clouds Few 900 ft
Mostly Cloudy 1300 ft
Overcast 3700 ft
Dew Point 56 °F
Humidity 96%
Rainfall 0.60 in
Snow Depth Not available.
UV 0 out of 12
Pollen .10 out of 12
Air Quality Not available.
Flu Activity Not available.
SPECI KRMG 290055Z AUTO 03004KT 8SM -RA FEW009 BKN013 OVC037 14/13 A3007 RMK AO2 RAB54 P0000 T01390133

More Conditions Fewer Conditions

10-Day Weather Forecast

Almanac

Astronomy

Dec. 28, 2014 Rise Set
Actual Time
Civil Twilight
Nautical Twilight
Astronomical Twilight
Moon
Length of Visible Light
Length of Day
Tomorrow will be .
, % of the Moon is Illuminated

Today's Extremes

State Highs State Lows

Community

WunderPhotos

Upload Photos

1,781,482 photos uploaded!

WunderBlogs® & News

Nearby

Air Quality

  Air Quality AQ Index Pollutant
Not available.

Snow Depth

Station Depth Elevation

Earthquake Activity

City Distance Mag. Time & Date
Minimum magnitude displayed is 2.5.

Coastal Water Temperatures

Place Temperature

Nearby Weather Stations